createdAt,value
2018-01-26T00:01:44.048Z,-6.72
2018-01-26T00:04:11.594Z,-6.71
2018-01-26T00:06:39.231Z,-6.72
2018-01-26T00:09:06.844Z,-6.67
2018-01-26T00:11:34.460Z,-6.64
2018-01-26T00:14:02.046Z,-6.63
2018-01-26T00:16:29.658Z,-6.66
2018-01-26T00:18:57.310Z,-6.68
2018-01-26T00:21:24.890Z,-6.77
2018-01-26T00:23:52.438Z,-6.81
2018-01-26T00:26:20.031Z,-6.87
2018-01-26T00:28:47.602Z,-6.89
2018-01-26T00:31:15.194Z,-6.96
2018-01-26T00:33:42.745Z,-6.93
2018-01-26T00:36:10.298Z,-6.92
2018-01-26T00:38:37.896Z,-6.97
2018-01-26T00:41:05.437Z,-6.98
2018-01-26T00:43:33.767Z,-7.05
2018-01-26T00:46:01.391Z,-6.98
2018-01-26T00:48:29.003Z,-6.98
2018-01-26T00:50:56.619Z,-6.92
2018-01-26T00:53:24.162Z,-6.96
2018-01-26T00:55:51.701Z,-6.93
2018-01-26T00:58:19.315Z,-6.88
2018-01-26T01:00:46.879Z,-6.76
2018-01-26T01:03:14.545Z,-6.79
2018-01-26T01:05:42.110Z,-6.76
2018-01-26T01:08:09.666Z,-6.79
2018-01-26T01:10:37.323Z,-6.83
2018-01-26T01:13:04.870Z,-6.82
2018-01-26T01:15:32.519Z,-6.83
2018-01-26T01:18:00.132Z,-6.85
2018-01-26T01:20:27.678Z,-6.86
2018-01-26T01:22:55.244Z,-6.89
2018-01-26T01:25:22.820Z,-6.93
2018-01-26T01:27:50.592Z,-6.99
2018-01-26T01:30:18.134Z,-6.96
2018-01-26T01:32:45.730Z,-6.97
2018-01-26T01:35:13.296Z,-7.02
2018-01-26T01:37:40.842Z,-6.96
2018-01-26T01:40:08.499Z,-6.91
2018-01-26T01:42:36.707Z,-6.91
2018-01-26T01:45:04.336Z,-7.01
2018-01-26T01:47:31.971Z,-7.03
2018-01-26T01:49:59.587Z,-7.13
2018-01-26T01:52:27.163Z,-7.14
2018-01-26T01:54:54.707Z,-7.14
2018-01-26T01:57:22.306Z,-7.16
2018-01-26T01:59:49.846Z,-7.19
2018-01-26T02:02:17.401Z,-7.19
2018-01-26T02:04:44.955Z,-7.24
2018-01-26T02:07:12.502Z,-7.25
2018-01-26T02:09:40.093Z,-7.21
2018-01-26T02:12:07.639Z,-7.19
2018-01-26T02:14:35.278Z,-7.22
2018-01-26T02:17:02.850Z,-7.30
2018-01-26T02:19:30.406Z,-7.34
2018-01-26T02:21:58.031Z,-7.30
2018-01-26T02:24:25.639Z,-7.29
2018-01-26T02:26:53.251Z,-7.29
2018-01-26T02:29:20.830Z,-7.27
2018-01-26T02:31:48.435Z,-7.29
2018-01-26T02:34:16.022Z,-7.32
2018-01-26T02:36:43.574Z,-7.33
2018-01-26T02:39:11.118Z,-7.35
2018-01-26T02:41:39.590Z,-7.35
2018-01-26T02:44:07.206Z,-7.32
2018-01-26T02:46:34.823Z,-7.36
2018-01-26T02:49:02.485Z,-7.41
2018-01-26T02:51:30.096Z,-7.41
2018-01-26T02:53:57.711Z,-7.50
2018-01-26T02:56:25.251Z,-7.46
2018-01-26T02:58:52.851Z,-7.48
2018-01-26T03:01:20.459Z,-7.49
2018-01-26T03:03:48.012Z,-7.54
2018-01-26T03:06:15.562Z,-7.53
2018-01-26T03:08:43.101Z,-7.53
2018-01-26T03:11:10.686Z,-7.50
2018-01-26T03:13:38.286Z,-7.48
2018-01-26T03:16:05.827Z,-7.45
2018-01-26T03:18:33.439Z,-7.49
2018-01-26T03:21:00.988Z,-7.52
2018-01-26T03:23:28.636Z,-7.57
2018-01-26T03:25:56.186Z,-7.60
2018-01-26T03:28:23.770Z,-7.57
2018-01-26T03:30:51.392Z,-7.57
2018-01-26T03:33:18.939Z,-7.52
2018-01-26T03:35:46.595Z,-7.50
2018-01-26T03:38:14.198Z,-7.51
2018-01-26T03:40:41.759Z,-7.51
2018-01-26T03:43:09.389Z,-7.57
2018-01-26T03:45:36.989Z,-7.66
2018-01-26T03:48:04.635Z,-7.66
2018-01-26T03:50:32.240Z,-7.63
2018-01-26T03:52:59.843Z,-7.68
2018-01-26T03:55:27.394Z,-7.71
2018-01-26T03:57:54.941Z,-7.77
2018-01-26T04:00:22.539Z,-7.79
2018-01-26T04:02:50.082Z,-7.78
2018-01-26T04:05:17.684Z,-7.78
2018-01-26T04:07:45.232Z,-7.79
2018-01-26T04:10:12.773Z,-7.84
2018-01-26T04:12:40.423Z,-7.82
2018-01-26T04:15:08.006Z,-7.81
2018-01-26T04:17:35.556Z,-7.77
2018-01-26T04:20:03.154Z,-7.79
2018-01-26T04:22:30.702Z,-7.81
2018-01-26T04:24:58.290Z,-7.86
2018-01-26T04:27:25.889Z,-7.85
2018-01-26T04:29:53.491Z,-7.80
2018-01-26T04:32:21.058Z,-7.75
2018-01-26T04:34:48.594Z,-7.75
2018-01-26T04:37:16.182Z,-7.71
2018-01-26T04:39:43.781Z,-7.70
2018-01-26T04:42:11.322Z,-7.70
2018-01-26T04:44:38.879Z,-7.70
2018-01-26T04:47:06.488Z,-7.72
2018-01-26T04:49:34.169Z,-7.72
2018-01-26T04:52:01.711Z,-7.72
2018-01-26T04:54:29.313Z,-7.73
2018-01-26T04:56:56.862Z,-7.83
2018-01-26T04:59:24.459Z,-7.91
2018-01-26T05:01:52.050Z,-7.92
2018-01-26T05:04:19.666Z,-8.02
2018-01-26T05:06:47.208Z,-8.01
2018-01-26T05:09:14.823Z,-7.99
2018-01-26T05:11:42.368Z,-7.97
2018-01-26T05:14:09.955Z,-7.94
2018-01-26T05:16:37.502Z,-7.92
2018-01-26T05:19:05.113Z,-7.93
2018-01-26T05:21:32.666Z,-7.98
2018-01-26T05:24:00.212Z,-7.99
2018-01-26T05:26:27.884Z,-7.99
2018-01-26T05:28:55.427Z,-8.00
2018-01-26T05:31:22.970Z,-8.03
2018-01-26T05:33:50.580Z,-8.01
2018-01-26T05:36:18.123Z,-7.98
2018-01-26T05:38:45.761Z,-7.99
2018-01-26T05:41:13.303Z,-8.00
2018-01-26T05:43:40.850Z,-7.98
2018-01-26T05:46:08.409Z,-7.92
2018-01-26T05:48:36.010Z,-7.89
2018-01-26T05:51:03.655Z,-7.81
2018-01-26T05:53:31.190Z,-7.71
2018-01-26T05:55:58.852Z,-7.65
2018-01-26T05:58:26.439Z,-7.59
2018-01-26T06:00:53.986Z,-7.45
2018-01-26T06:03:21.599Z,-7.29
2018-01-26T06:05:49.142Z,-7.20
2018-01-26T06:08:16.685Z,-7.19
2018-01-26T06:10:44.236Z,-7.06
2018-01-26T06:13:11.826Z,-6.95
2018-01-26T06:15:39.472Z,-6.83
2018-01-26T06:18:07.043Z,-6.78
2018-01-26T06:20:34.592Z,-6.68
2018-01-26T06:23:02.200Z,-6.58
2018-01-26T06:25:29.756Z,-6.43
2018-01-26T06:27:57.352Z,-6.36
2018-01-26T06:30:24.999Z,-6.21
2018-01-26T06:32:52.600Z,-6.08
2018-01-26T06:35:20.148Z,-5.97
2018-01-26T06:37:47.695Z,-5.84
2018-01-26T06:40:15.242Z,-5.74
2018-01-26T06:42:42.791Z,-5.69
2018-01-26T06:45:10.351Z,-5.62
2018-01-26T06:47:37.898Z,-5.64
2018-01-26T06:50:05.478Z,-5.56
2018-01-26T06:52:33.084Z,-5.48
2018-01-26T06:55:00.634Z,-5.35
2018-01-26T06:57:28.186Z,-5.23
2018-01-26T06:59:55.734Z,-5.14
2018-01-26T07:02:23.322Z,-4.98
2018-01-26T07:04:50.864Z,-4.89
2018-01-26T07:07:18.403Z,-4.81
2018-01-26T07:09:45.986Z,-4.72
2018-01-26T07:12:13.533Z,-4.60
2018-01-26T07:14:41.083Z,-4.49
2018-01-26T07:17:08.682Z,-4.42
2018-01-26T07:19:36.326Z,-4.33
2018-01-26T07:22:03.926Z,-4.23
2018-01-26T07:24:31.470Z,-4.22
2018-01-26T07:26:59.025Z,-4.16
2018-01-26T07:29:26.637Z,-3.97
2018-01-26T07:31:54.246Z,-3.83
2018-01-26T07:34:21.848Z,-3.68
2018-01-26T07:36:49.436Z,-3.51
2018-01-26T07:39:16.990Z,-3.45
2018-01-26T07:41:44.530Z,-3.34
2018-01-26T07:44:12.086Z,-3.29
2018-01-26T07:46:39.674Z,-3.23
2018-01-26T07:49:07.230Z,-3.01
2018-01-26T07:51:34.832Z,-2.84
2018-01-26T07:54:02.452Z,-2.72
2018-01-26T07:56:30.159Z,-2.59
2018-01-26T07:58:57.703Z,-2.65
2018-01-26T08:01:25.259Z,-2.55
2018-01-26T08:03:52.803Z,-2.51
2018-01-26T08:06:20.569Z,-2.43
2018-01-26T08:08:48.012Z,-2.27
2018-01-26T08:11:15.699Z,-2.19
2018-01-26T08:13:43.239Z,-2.00
2018-01-26T08:16:10.842Z,-1.86
2018-01-26T08:18:38.390Z,-1.79
2018-01-26T08:21:05.930Z,-1.66
2018-01-26T08:23:33.483Z,-1.47
2018-01-26T08:26:01.024Z,-1.32
2018-01-26T08:28:28.677Z,-1.13
2018-01-26T08:30:56.219Z,-1.02
2018-01-26T08:33:23.822Z,-0.89
2018-01-26T08:35:51.372Z,-0.71
2018-01-26T08:38:18.974Z,-0.60
2018-01-26T08:40:46.523Z,-0.52
2018-01-26T08:43:14.066Z,-0.42
2018-01-26T08:45:41.655Z,-0.31
2018-01-26T08:48:09.205Z,-0.15
2018-01-26T08:50:36.747Z,-0.13
2018-01-26T08:53:04.294Z,0.13
2018-01-26T08:55:31.883Z,0.16
2018-01-26T08:57:59.431Z,0.23
2018-01-26T09:00:27.013Z,0.28
2018-01-26T09:02:54.608Z,0.41
2018-01-26T09:05:22.210Z,0.49
2018-01-26T09:07:49.819Z,0.80
2018-01-26T09:10:17.417Z,1.04
2018-01-26T09:12:45.019Z,1.31
2018-01-26T09:15:12.636Z,1.32
2018-01-26T09:17:40.174Z,1.53
2018-01-26T09:20:07.712Z,1.64
2018-01-26T09:22:35.267Z,1.76
2018-01-26T09:25:02.811Z,1.88
2018-01-26T09:27:30.395Z,2.11
2018-01-26T09:29:58.047Z,2.46
2018-01-26T09:32:25.643Z,2.71
2018-01-26T09:34:53.199Z,3.22
2018-01-26T09:37:20.844Z,3.24
2018-01-26T09:39:48.470Z,3.16
2018-01-26T09:42:16.068Z,3.51
2018-01-26T09:44:43.616Z,3.87
2018-01-26T09:47:11.175Z,4.29
2018-01-26T09:49:38.724Z,5.02
2018-01-26T09:52:06.362Z,5.12
2018-01-26T09:54:33.902Z,4.78
2018-01-26T09:57:01.452Z,4.84
2018-01-26T09:59:29.042Z,4.83
2018-01-26T10:01:56.590Z,5.02
2018-01-26T10:04:24.240Z,5.18
2018-01-26T10:06:51.838Z,5.38
2018-01-26T10:09:19.435Z,5.54
2018-01-26T10:11:46.983Z,5.76
2018-01-26T10:14:14.517Z,5.91
2018-01-26T10:16:42.110Z,5.85
2018-01-26T10:19:10.296Z,5.99
2018-01-26T10:21:38.438Z,6.01
2018-01-26T10:24:06.001Z,6.32
2018-01-26T10:26:34.190Z,6.15
2018-01-26T10:29:01.796Z,6.41
2018-01-26T10:31:29.936Z,6.82
2018-01-26T10:33:58.290Z,6.64
2018-01-26T10:36:25.898Z,6.86
2018-01-26T10:38:54.045Z,7.25
2018-01-26T10:41:21.632Z,8.08
2018-01-26T10:43:49.174Z,8.95
2018-01-26T10:46:16.770Z,9.06
2018-01-26T10:48:44.314Z,8.87
2018-01-26T10:51:11.855Z,8.04
2018-01-26T10:53:39.499Z,8.12
2018-01-26T10:56:07.037Z,8.18
2018-01-26T10:58:35.324Z,9.00
2018-01-26T11:01:02.944Z,9.02
2018-01-26T11:03:30.493Z,9.31
2018-01-26T11:05:58.119Z,9.48
2018-01-26T11:08:25.678Z,9.89
2018-01-26T11:10:53.230Z,10.76
2018-01-26T11:13:21.583Z,11.39
2018-01-26T11:15:49.144Z,10.77
2018-01-26T11:18:16.807Z,11.05
2018-01-26T11:20:44.432Z,10.88
2018-01-26T11:23:11.990Z,11.62
2018-01-26T11:25:39.554Z,12.02
2018-01-26T11:28:07.163Z,11.44
2018-01-26T11:30:34.814Z,11.88
2018-01-26T11:33:02.371Z,12.71
2018-01-26T11:35:29.984Z,12.17
2018-01-26T11:37:58.199Z,12.09
2018-01-26T11:40:25.759Z,12.07
2018-01-26T11:42:53.389Z,11.85
2018-01-26T11:45:21.010Z,11.58
